Terminal Aerodrome Forecast
Issued by NWS

Home | Current Version | Previous Version | Text Only | Print | Product List | Glossary On
Versions: 1 2 3 4 5 6 7 8 9 10 11 12 13 14 15 16 17
000
FTUS43 KLSX 261100
TAFSUS
TAF
KSUS 261125Z 2612/2712 29005KT P6SM SCT017
     FM261300 27005KT P6SM BKN020
     FM261800 22007KT P6SM VCSH BKN025
     FM262100 21007KT P6SM BKN040
     FM270000 VRB04KT P6SM BKN040
     FM270400 31008KT P6SM BKN025=

USA.gov is the U.S. government's official web portal to all federal, state and local government web resources and services.